Time;durP1;ratioP1;P1;durP2;ratioP2;P2;SDS_P1;SDS_P2;PMS_P1;PMS_P2;Temp;Humidity;BMP_temperature;BMP_pressure;BME280_temperature;BME280_humidity;BME280_pressure;Samples;Min_cycle;Max_cycle;Signal;HPM_P1;HPM_P2
2022/06/11 00:00:04;;;;;;;;;;;;;;;13.21;93.68;96727.75;5034638;28;19917;-62
2022/06/11 00:02:29;;;;;;;;;;;;;;;13.27;93.78;96731.22;5034412;28;19916;-60
2022/06/11 00:04:55;;;;;;;;;;;;;;;13.32;93.59;96742.16;5034124;28;19917;-61
2022/06/11 00:07:22;;;;;;;;;;;;;;;13.37;93.89;96735.75;5034282;28;19917;-62
2022/06/11 00:09:48;;;;;;;;;;;;;;;13.40;93.98;96737.94;5034589;28;19948;-60
2022/06/11 00:12:13;;;;;;;;;;;;;;;13.43;94.05;96735.38;5034292;28;19944;-63
2022/06/11 00:14:42;;;;;;;;;;;;;;;13.45;93.87;96746.09;5033551;28;19917;-62
2022/06/11 00:17:08;;;;;;;;;;;;;;;13.47;93.80;96730.06;5033927;28;19964;-61
2022/06/11 00:19:35;;;;;;;;;;;;;;;13.49;94.05;96733.34;5034440;28;20339;-63
2022/06/11 00:22:02;;;;;;;;;;;;;;;13.51;94.01;96731.09;5034082;28;19967;-61
2022/06/11 00:24:28;;;;;;;;;;;;;;;13.51;93.77;96730.28;5033928;28;19917;-61
2022/06/11 00:26:55;;;;;;;;;;;;;;;13.52;93.85;96723.66;5033719;28;19928;-61
2022/06/11 00:29:22;;;;;;;;;;;;;;;13.53;93.97;96728.84;5033958;28;19921;-61
2022/06/11 00:31:48;;;;;;;;;;;;;;;13.53;93.82;96736.28;5033915;28;19924;-62
2022/06/11 00:34:14;;;;;;;;;;;;;;;13.52;93.75;96734.66;5033820;28;20015;-62
2022/06/11 00:36:40;;;;;;;;;;;;;;;13.51;93.63;96722.81;5033764;28;19960;-61
2022/06/11 00:39:09;;;;;;;;;;;;;;;13.54;93.92;96724.16;5033928;28;19921;-61
2022/06/11 00:41:36;;;;;;;;;;;;;;;13.61;93.82;96722.59;5033526;28;19917;-61
2022/06/11 00:44:02;;;;;;;;;;;;;;;13.66;93.67;96719.78;5032921;28;19923;-62
2022/06/11 00:46:36;;;;;;;;;;;;;;;13.71;93.66;96704.25;5033383;28;20393;-61
2022/06/11 00:49:10;;;;;;;;;;;;;;;13.74;93.65;96711.91;5033542;28;19917;-62
2022/06/11 00:51:36;;;;;;;;;;;;;;;13.76;93.57;96707.69;5033538;28;19960;-61
2022/06/11 00:54:05;;;;;;;;;;;;;;;13.82;93.78;96711.16;5033509;28;19917;-62
2022/06/11 00:56:32;;;;;;;;;;;;;;;13.91;93.41;96706.56;5033064;28;19917;-61
2022/06/11 00:58:59;;;;;;;;;;;;;;;13.98;93.55;96708.91;5033420;28;19963;-62
2022/06/11 01:01:25;;;;;;;;;;;;;;;14.06;93.43;96710.13;5033298;28;19975;-63
2022/06/11 01:03:52;;;;;;;;;;;;;;;14.18;93.47;96713.19;5033614;28;19924;-63
2022/06/11 01:06:24;;;;;;;;;;;;;;;14.27;93.23;96714.06;5033138;28;19917;-62
2022/06/11 01:08:58;;;;;;;;;;;;;;;14.28;93.24;96718.47;5032959;28;19917;-61
2022/06/11 01:11:42;;;;;;;;;;;;;;;14.25;93.22;96718.25;5033533;28;19923;-61
2022/06/11 01:14:30;;;;;;;;;;;;;;;14.17;93.08;96722.56;5032752;28;19971;-63
2022/06/11 01:17:04;;;;;;;;;;;;;;;14.11;93.11;96721.88;5033225;28;19924;-62
2022/06/11 01:19:39;;;;;;;;;;;;;;;14.08;93.00;96727.19;5032958;28;20288;-61
2022/06/11 01:22:25;;;;;;;;;;;;;;;14.05;92.79;96723.09;5032907;28;19923;-62
2022/06/11 01:25:04;;;;;;;;;;;;;;;14.04;93.04;96728.94;5033032;28;20063;-61
2022/06/11 01:27:54;;;;;;;;;;;;;;;13.99;92.87;96727.91;5033486;28;20376;-62
2022/06/11 01:30:39;;;;;;;;;;;;;;;13.96;93.08;96725.78;5032824;28;19917;-64
2022/06/11 01:33:11;;;;;;;;;;;;;;;13.96;93.01;96739.56;5032891;28;19935;-62
2022/06/11 01:35:50;;;;;;;;;;;;;;;13.95;93.11;96737.13;5032704;28;19917;-61
2022/06/11 01:38:24;;;;;;;;;;;;;;;13.85;93.10;96738.13;5032676;28;19921;-62
2022/06/11 01:40:56;;;;;;;;;;;;;;;13.77;93.02;96742.44;5032673;28;19909;-62
2022/06/11 01:43:29;;;;;;;;;;;;;;;13.74;93.06;96731.22;5032244;28;19920;-62
2022/06/11 01:45:55;;;;;;;;;;;;;;;13.70;93.14;96738.47;5032670;28;19912;-63
2022/06/11 01:48:25;;;;;;;;;;;;;;;13.66;93.12;96730.81;5032481;28;19917;-61
2022/06/11 01:50:53;;;;;;;;;;;;;;;13.59;92.98;96726.78;5032420;28;19905;-60
2022/06/11 01:53:18;;;;;;;;;;;;;;;13.47;92.45;96713.50;5032652;28;20004;-62
2022/06/11 01:55:44;;;;;;;;;;;;;;;13.40;92.56;96708.41;5034160;28;20015;-63
2022/06/11 01:58:09;;;;;;;;;;;;;;;13.36;92.58;96715.66;5037023;28;19921;-63
2022/06/11 02:00:37;;;;;;;;;;;;;;;13.31;92.49;96722.06;5036485;28;19917;-62
2022/06/11 02:03:14;;;;;;;;;;;;;;;13.26;92.31;96705.59;5036646;28;19917;-62
2022/06/11 02:05:52;;;;;;;;;;;;;;;13.20;92.35;96701.31;5036509;28;19917;-62
2022/06/11 02:08:24;;;;;;;;;;;;;;;13.15;92.35;96713.25;5036434;28;19924;-62
2022/06/11 02:11:14;;;;;;;;;;;;;;;13.14;92.50;96713.53;5036687;28;20296;-64
2022/06/11 02:13:39;;;;;;;;;;;;;;;13.13;92.53;96711.91;5030304;28;19921;-62
2022/06/11 02:16:09;;;;;;;;;;;;;;;13.15;92.61;96720.69;5036486;28;20394;-61
2022/06/11 02:18:35;;;;;;;;;;;;;;;13.15;92.61;96721.50;5036676;28;20375;-61
2022/06/11 02:21:07;;;;;;;;;;;;;;;13.21;92.60;96724.19;5035896;28;19923;-62
2022/06/11 02:23:35;;;;;;;;;;;;;;;13.27;92.61;96721.00;5036225;28;19917;-61
2022/06/11 02:26:04;;;;;;;;;;;;;;;13.38;92.64;96723.63;5036188;28;19921;-63
2022/06/11 02:28:32;;;;;;;;;;;;;;;13.49;92.84;96725.88;5036049;28;20345;-62
2022/06/11 02:31:02;;;;;;;;;;;;;;;13.69;93.00;96726.59;5035968;28;19924;-62
2022/06/11 02:33:29;;;;;;;;;;;;;;;13.91;92.76;96728.63;5036160;28;19971;-62
2022/06/11 02:35:58;;;;;;;;;;;;;;;14.15;92.90;96730.34;5035655;28;19917;-62
2022/06/11 02:38:25;;;;;;;;;;;;;;;14.50;92.68;96736.19;5035809;28;19917;-62
2022/06/11 02:40:53;;;;;;;;;;;;;;;14.88;92.70;96745.00;5035898;28;19913;-62
2022/06/11 02:43:19;;;;;;;;;;;;;;;15.18;92.64;96745.38;5035491;28;19917;-65
2022/06/11 02:45:44;;;;;;;;;;;;;;;15.31;92.26;96748.34;5035800;28;19913;-63
2022/06/11 02:48:12;;;;;;;;;;;;;;;15.24;91.86;96749.63;5035975;28;19925;-63
2022/06/11 02:50:37;;;;;;;;;;;;;;;15.20;91.48;96745.03;5035531;28;20015;-62
2022/06/11 02:53:05;;;;;;;;;;;;;;;15.33;91.51;96744.16;5035309;28;19991;-62
2022/06/11 02:55:31;;;;;;;;;;;;;;;15.71;91.72;96752.00;5035412;28;19917;-65
2022/06/11 02:57:57;;;;;;;;;;;;;;;16.09;91.56;96753.44;5035436;28;19917;-61
2022/06/11 03:00:25;;;;;;;;;;;;;;;16.40;91.29;96749.75;5034663;28;19924;-63
2022/06/11 03:02:51;;;;;;;;;;;;;;;16.91;90.97;96752.94;5033010;28;20330;-67
2022/06/11 03:05:18;;;;;;;;;;;;;;;17.75;91.08;96745.06;5034560;28;19912;-63
2022/06/11 03:07:44;;;;;;;;;;;;;;;18.65;89.72;96740.34;5035026;28;20024;-63
2022/06/11 03:10:12;;;;;;;;;;;;;;;20.76;86.06;96736.03;5035208;28;19913;-64
2022/06/11 03:12:37;;;;;;;;;;;;;;;24.72;73.99;96733.69;5035282;28;19943;-62
2022/06/11 03:15:03;;;;;;;;;;;;;;;25.45;72.47;96733.41;5017140;28;19917;-62
2022/06/11 03:17:29;;;;;;;;;;;;;;;25.05;74.26;96740.53;5035244;28;19925;-62
2022/06/11 03:19:54;;;;;;;;;;;;;;;24.17;78.66;96745.22;5034934;28;20406;-66
2022/06/11 03:22:20;;;;;;;;;;;;;;;23.23;81.76;96737.91;5033698;28;19921;-67
2022/06/11 03:24:45;;;;;;;;;;;;;;;22.30;83.25;96733.78;5035193;28;20371;-63
2022/06/11 03:27:11;;;;;;;;;;;;;;;21.53;85.15;96737.84;5016758;28;20387;-71
2022/06/11 03:29:37;;;;;;;;;;;;;;;20.87;85.45;96734.38;5035333;28;20003;-65
2022/06/11 03:32:03;;;;;;;;;;;;;;;20.38;87.26;96740.03;5035250;28;20186;-63
2022/06/11 03:34:29;;;;;;;;;;;;;;;20.22;88.52;96735.16;5035166;28;20014;-63
2022/06/11 03:36:57;;;;;;;;;;;;;;;20.30;89.64;96738.97;5034991;28;19992;-65
2022/06/11 03:39:22;;;;;;;;;;;;;;;20.21;89.89;96747.44;5034412;28;19917;-65
2022/06/11 03:41:48;;;;;;;;;;;;;;;20.04;90.00;96742.13;5034978;28;19996;-64
2022/06/11 03:44:14;;;;;;;;;;;;;;;19.90;90.23;96743.25;5034408;28;20362;-64
2022/06/11 03:46:40;;;;;;;;;;;;;;;19.97;90.71;96742.69;5034694;28;20431;-63
2022/06/11 03:49:05;;;;;;;;;;;;;;;19.99;89.66;96737.59;5034522;28;19963;-62
2022/06/11 03:51:31;;;;;;;;;;;;;;;19.93;89.91;96742.59;5034276;28;19971;-64
2022/06/11 03:53:56;;;;;;;;;;;;;;;20.03;89.89;96741.31;5034509;28;19971;-64
2022/06/11 03:56:22;;;;;;;;;;;;;;;20.25;89.88;96734.44;5034501;28;19917;-62
2022/06/11 03:58:49;;;;;;;;;;;;;;;20.21;89.69;96736.31;5034215;28;19948;-64
2022/06/11 04:01:15;;;;;;;;;;;;;;;20.26;89.41;96740.84;5032610;28;20284;-63
2022/06/11 04:03:42;;;;;;;;;;;;;;;20.04;88.73;96754.09;5034240;28;19927;-63
2022/06/11 04:06:08;;;;;;;;;;;;;;;19.98;88.74;96741.56;5033882;28;19917;-62
2022/06/11 04:08:34;;;;;;;;;;;;;;;20.65;89.68;96744.84;5034221;28;20342;-64
2022/06/11 04:11:01;;;;;;;;;;;;;;;22.44;89.81;96747.34;5034510;28;20095;-62
2022/06/11 04:13:27;;;;;;;;;;;;;;;22.20;88.51;96737.13;5033734;28;19913;-61
2022/06/11 04:15:54;;;;;;;;;;;;;;;21.38;85.97;96749.75;5033975;28;19917;-62
2022/06/11 04:18:31;;;;;;;;;;;;;;;20.82;86.86;96746.59;5033620;28;19917;-63
2022/06/11 04:20:57;;;;;;;;;;;;;;;20.41;87.75;96744.91;5033686;28;19948;-62
2022/06/11 04:23:24;;;;;;;;;;;;;;;20.04;87.20;96736.56;5033891;28;20406;-63
2022/06/11 04:25:51;;;;;;;;;;;;;;;19.84;86.46;96738.28;5033728;28;19905;-63
2022/06/11 04:28:16;;;;;;;;;;;;;;;19.69;87.42;96734.97;5033550;28;19927;-64
2022/06/11 04:30:42;;;;;;;;;;;;;;;19.50;87.46;96743.88;5033523;28;20344;-64
2022/06/11 04:33:08;;;;;;;;;;;;;;;22.39;88.60;96726.06;5033346;28;19917;-64
2022/06/11 04:35:34;;;;;;;;;;;;;;;25.35;81.76;96739.72;5033524;28;20443;-63
2022/06/11 04:37:59;;;;;;;;;;;;;;;27.75;74.16;96719.31;5033987;28;19921;-62
2022/06/11 04:40:25;;;;;;;;;;;;;;;27.80;73.90;96722.53;5033399;28;19924;-64
2022/06/11 04:42:50;;;;;;;;;;;;;;;27.62;75.42;96719.69;5033016;28;19917;-61
2022/06/11 04:45:18;;;;;;;;;;;;;;;27.14;76.88;96714.28;5033460;28;19949;-61
2022/06/11 04:47:44;;;;;;;;;;;;;;;26.70;78.78;96710.41;5033506;28;19924;-62
2022/06/11 04:50:14;;;;;;;;;;;;;;;27.95;77.32;96714.09;5015769;28;20296;-62
2022/06/11 04:52:39;;;;;;;;;;;;;;;29.36;74.01;96709.88;5033274;28;19921;-63
2022/06/11 04:55:05;;;;;;;;;;;;;;;30.69;70.76;96707.34;5033286;28;19979;-62
2022/06/11 04:57:30;;;;;;;;;;;;;;;32.45;67.00;96695.66;5033397;28;19921;-62
2022/06/11 04:59:56;;;;;;;;;;;;;;;34.00;63.30;96690.50;5032894;28;19917;-63
2022/06/11 05:02:22;;;;;;;;;;;;;;;35.50;60.56;96689.00;5033200;28;20035;-63
2022/06/11 05:04:48;;;;;;;;;;;;;;;36.54;59.45;96688.56;5033060;28;19913;-63
2022/06/11 05:07:13;;;;;;;;;;;;;;;37.40;58.67;96689.63;5033246;28;20395;-65
2022/06/11 05:09:39;;;;;;;;;;;;;;;38.02;58.64;96683.16;5033322;28;19917;-63
2022/06/11 05:12:04;;;;;;;;;;;;;;;37.32;60.59;96687.06;5032870;28;19924;-65
2022/06/11 05:14:30;;;;;;;;;;;;;;;34.29;65.20;96681.28;5032615;28;19944;-62
2022/06/11 05:22:06;;;;;;;;;;;;;;;27.06;75.18;96684.44;5168424;23;19954;-61
2022/06/11 05:24:31;;;;;;;;;;;;;;;25.78;76.15;96686.78;5052878;28;19916;-63
2022/06/11 05:27:02;;;;;;;;;;;;;;;25.11;79.94;96693.28;5052866;28;20358;-61
2022/06/11 05:29:41;;;;;;;;;;;;;;;27.50;87.36;96689.03;5051108;28;19917;-62
2022/06/11 05:32:07;;;;;;;;;;;;;;;30.44;85.75;96687.75;5051277;28;19920;-60
2022/06/11 05:34:32;;;;;;;;;;;;;;;31.39;83.36;96678.59;5052913;28;19921;-62
2022/06/11 05:36:59;;;;;;;;;;;;;;;33.67;76.87;96686.78;5052542;28;20388;-63
2022/06/11 05:39:25;;;;;;;;;;;;;;;35.13;71.21;96672.13;5052707;28;19917;-62
2022/06/11 05:41:50;;;;;;;;;;;;;;;34.64;72.54;96681.59;5052558;28;19916;-60
2022/06/11 05:44:16;;;;;;;;;;;;;;;33.62;75.04;96675.94;5052656;28;20023;-61
2022/06/11 05:46:41;;;;;;;;;;;;;;;33.13;76.38;96683.03;5052529;28;19924;-63
2022/06/11 05:49:08;;;;;;;;;;;;;;;32.06;77.16;96682.91;5051757;28;19917;-63
2022/06/11 05:51:36;;;;;;;;;;;;;;;31.93;81.40;96679.88;5052735;28;19969;-63
2022/06/11 05:54:03;;;;;;;;;;;;;;;30.93;77.75;96679.94;5052450;28;19916;-62
2022/06/11 05:56:28;;;;;;;;;;;;;;;29.29;76.04;96689.31;5052523;28;19924;-63
2022/06/11 05:58:59;;;;;;;;;;;;;;;27.91;77.85;96683.06;5052448;28;19917;-64
2022/06/11 06:01:27;;;;;;;;;;;;;;;26.66;79.05;96686.25;5049739;28;20404;-63
2022/06/11 06:03:53;;;;;;;;;;;;;;;25.52;80.20;96688.53;5048150;28;19948;-62
2022/06/11 06:06:19;;;;;;;;;;;;;;;24.68;81.30;96685.09;5033386;28;19987;-62
2022/06/11 06:08:44;;;;;;;;;;;;;;;24.05;82.34;96687.34;5050209;28;19939;-65
2022/06/11 06:11:10;;;;;;;;;;;;;;;23.59;83.02;96695.75;5048238;28;19921;-62
2022/06/11 06:13:48;;;;;;;;;;;;;;;23.23;83.57;96689.47;5051941;28;19916;-63
2022/06/11 06:16:18;;;;;;;;;;;;;;;23.01;84.90;96683.44;5050483;28;19982;-61
2022/06/11 06:18:44;;;;;;;;;;;;;;;23.03;85.66;96681.06;5036503;28;19932;-68
2022/06/11 06:21:10;;;;;;;;;;;;;;;23.07;86.08;96672.72;5045982;28;19921;-63
2022/06/11 06:23:35;;;;;;;;;;;;;;;23.23;86.59;96675.47;5036225;28;19952;-60
2022/06/11 06:26:01;;;;;;;;;;;;;;;23.54;87.04;96676.44;5043337;28;19964;-62
2022/06/11 06:28:26;;;;;;;;;;;;;;;23.79;86.73;96679.69;5031942;28;19927;-62
2022/06/11 06:30:52;;;;;;;;;;;;;;;23.96;86.53;96678.41;5045585;28;19921;-61
2022/06/11 06:33:18;;;;;;;;;;;;;;;23.74;85.19;96678.00;5045630;28;19952;-60
2022/06/11 06:35:43;;;;;;;;;;;;;;;23.44;84.67;96677.88;5039835;28;19912;-61
2022/06/11 06:38:09;;;;;;;;;;;;;;;23.07;85.18;96676.34;5051187;28;19916;-61
2022/06/11 06:40:35;;;;;;;;;;;;;;;22.69;85.06;96675.19;5051022;28;19913;-61
2022/06/11 06:43:01;;;;;;;;;;;;;;;22.43;85.93;96673.00;5054385;28;19962;-62
2022/06/11 06:45:26;;;;;;;;;;;;;;;22.34;86.16;96673.22;5054558;28;19921;-61
2022/06/11 06:47:51;;;;;;;;;;;;;;;22.65;87.26;96674.28;5054754;28;20440;-60
2022/06/11 06:50:17;;;;;;;;;;;;;;;22.92;87.45;96671.63;5054070;28;19999;-60
2022/06/11 06:52:42;;;;;;;;;;;;;;;22.99;87.16;96676.59;5054668;28;19913;-60
2022/06/11 06:55:08;;;;;;;;;;;;;;;23.14;87.30;96664.50;5054477;28;19992;-60
2022/06/11 06:57:33;;;;;;;;;;;;;;;23.18;86.86;96665.38;5054785;28;19917;-61
2022/06/11 07:00:01;;;;;;;;;;;;;;;23.55;87.51;96664.88;5054410;28;19923;-62
2022/06/11 07:02:26;;;;;;;;;;;;;;;23.99;87.77;96665.63;5054429;28;19923;-61
2022/06/11 07:04:52;;;;;;;;;;;;;;;24.08;87.15;96664.16;5054493;28;19912;-61
2022/06/11 07:07:18;;;;;;;;;;;;;;;23.91;86.48;96664.69;5054311;28;19959;-61
2022/06/11 07:09:43;;;;;;;;;;;;;;;23.49;85.43;96660.75;5054392;28;20058;-61
2022/06/11 07:12:09;;;;;;;;;;;;;;;22.95;85.11;96665.31;5054513;28;19976;-61
2022/06/11 07:14:34;;;;;;;;;;;;;;;22.46;85.02;96661.09;5054260;28;20328;-61
2022/06/11 07:17:02;;;;;;;;;;;;;;;22.07;85.09;96662.94;5054088;28;20366;-62
2022/06/11 07:19:32;;;;;;;;;;;;;;;21.77;85.41;96655.88;5035795;28;19923;-61
2022/06/11 07:22:01;;;;;;;;;;;;;;;21.63;85.92;96655.53;5053274;28;19930;-61
2022/06/11 07:24:30;;;;;;;;;;;;;;;21.60;86.25;96659.03;5054001;28;19987;-61
2022/06/11 07:27:15;;;;;;;;;;;;;;;21.65;87.04;96658.75;5050875;28;19927;-60
2022/06/11 07:30:01;;;;;;;;;;;;;;;21.81;87.29;96665.16;5048592;28;19958;-59
2022/06/11 07:32:46;;;;;;;;;;;;;;;21.93;87.82;96660.66;5053636;28;19924;-60
2022/06/11 07:35:31;;;;;;;;;;;;;;;22.08;87.55;96657.00;5053657;28;20371;-59
2022/06/11 07:41:20;;;;;;;;;;;;;;;22.40;86.89;96657.75;5048157;28;19927;-58
2022/06/11 07:43:46;;;;;;;;;;;;;;;22.50;86.58;96661.19;5053572;28;19991;-59
2022/06/11 07:46:11;;;;;;;;;;;;;;;22.74;86.48;96666.47;5053475;28;19917;-60
2022/06/11 07:48:37;;;;;;;;;;;;;;;23.19;85.55;96666.19;5053256;28;19916;-61
2022/06/11 07:51:02;;;;;;;;;;;;;;;23.58;84.30;96666.91;5052951;28;19916;-62
2022/06/11 07:53:28;;;;;;;;;;;;;;;23.79;83.32;96669.28;5052692;28;19916;-61
2022/06/11 07:55:54;;;;;;;;;;;;;;;23.65;83.09;96669.03;5053348;28;19917;-61
2022/06/11 07:58:21;;;;;;;;;;;;;;;23.24;82.86;96671.50;5052977;28;19916;-62
2022/06/11 08:00:48;;;;;;;;;;;;;;;22.48;80.56;96683.09;5053060;28;19964;-62
2022/06/11 08:03:14;;;;;;;;;;;;;;;21.47;79.32;96686.19;5053208;28;20015;-61
2022/06/11 08:05:41;;;;;;;;;;;;;;;20.60;80.11;96692.13;5052918;28;20442;-62
2022/06/11 08:08:07;;;;;;;;;;;;;;;19.81;80.34;96702.78;5053017;28;19917;-60
2022/06/11 08:10:33;;;;;;;;;;;;;;;19.13;81.18;96685.34;5053235;28;19916;-59
2022/06/11 08:12:59;;;;;;;;;;;;;;;18.74;82.24;96693.03;5053112;28;19916;-59
2022/06/11 08:15:27;;;;;;;;;;;;;;;18.48;83.06;96690.47;5053048;28;20431;-59
2022/06/11 08:17:53;;;;;;;;;;;;;;;18.20;83.86;96691.00;5034858;28;19916;-59
2022/06/11 08:20:25;;;;;;;;;;;;;;;17.90;83.89;96691.00;5052252;28;19986;-59
2022/06/11 08:22:52;;;;;;;;;;;;;;;17.63;84.27;96681.16;5052112;28;19920;-61
2022/06/11 08:25:18;;;;;;;;;;;;;;;17.48;84.95;96688.06;5052673;28;20309;-60
2022/06/11 08:27:44;;;;;;;;;;;;;;;17.41;85.77;96694.09;5049099;28;19912;-60
2022/06/11 08:30:13;;;;;;;;;;;;;;;17.35;85.86;96695.44;5036990;28;19912;-59
2022/06/11 08:32:39;;;;;;;;;;;;;;;17.30;86.00;96698.41;5038191;28;19916;-59
2022/06/11 08:35:05;;;;;;;;;;;;;;;17.31;86.43;96695.31;5038162;28;19913;-59
2022/06/11 08:37:30;;;;;;;;;;;;;;;17.33;86.46;96693.00;5040032;28;19925;-61
2022/06/11 08:39:56;;;;;;;;;;;;;;;17.35;86.70;96689.91;5046424;28;19916;-62
2022/06/11 08:42:32;;;;;;;;;;;;;;;17.41;86.91;96687.75;5044469;28;19924;-61
2022/06/11 08:44:58;;;;;;;;;;;;;;;17.52;87.74;96689.84;5037864;28;19917;-59
2022/06/11 08:47:28;;;;;;;;;;;;;;;17.65;88.18;96676.06;5042226;28;19931;-61
2022/06/11 08:49:56;;;;;;;;;;;;;;;17.84;89.06;96683.97;5036943;28;19916;-60
2022/06/11 08:52:24;;;;;;;;;;;;;;;18.02;89.17;96687.50;5039210;28;20348;-58
2022/06/11 08:54:49;;;;;;;;;;;;;;;18.16;89.25;96685.28;5049833;28;19920;-59
2022/06/11 08:57:28;;;;;;;;;;;;;;;18.30;89.20;96687.00;5049964;28;19927;-59
2022/06/11 09:00:06;;;;;;;;;;;;;;;18.37;88.84;96681.72;5051869;28;20375;-59
2022/06/11 09:02:46;;;;;;;;;;;;;;;18.47;89.07;96684.09;5051806;28;20008;-60
2022/06/11 09:05:24;;;;;;;;;;;;;;;18.65;89.37;96681.97;5051563;28;20003;-59
2022/06/11 09:07:59;;;;;;;;;;;;;;;18.89;89.59;96692.44;5052141;28;20412;-61
2022/06/11 09:10:43;;;;;;;;;;;;;;;19.14;89.49;96689.75;5051913;28;19970;-60
2022/06/11 09:13:11;;;;;;;;;;;;;;;19.34;88.92;96687.25;5052572;28;19916;-63
2022/06/11 09:15:36;;;;;;;;;;;;;;;19.50;88.80;96685.41;5052573;28;19920;-59
2022/06/11 09:18:08;;;;;;;;;;;;;;;19.60;88.56;96692.53;5052813;28;19917;-59
2022/06/11 09:20:52;;;;;;;;;;;;;;;19.51;87.27;96692.63;5051154;28;19931;-60
2022/06/11 09:23:28;;;;;;;;;;;;;;;19.47;88.28;96697.25;5052601;28;20468;-59
2022/06/11 09:26:12;;;;;;;;;;;;;;;19.58;88.61;96692.03;5052653;28;20259;-63
2022/06/11 09:28:42;;;;;;;;;;;;;;;19.71;88.33;96696.47;5052087;28;20354;-59
